createdAt,value
2018-09-30T00:00:08.135Z,99.90
2018-09-30T00:02:36.757Z,99.90
2018-09-30T00:05:05.525Z,99.90
2018-09-30T00:07:34.261Z,99.90
2018-09-30T00:10:02.913Z,99.90
2018-09-30T00:12:31.512Z,99.90
2018-09-30T00:15:00.118Z,99.90
2018-09-30T00:17:28.939Z,99.90
2018-09-30T00:19:57.657Z,99.90
2018-09-30T00:22:26.637Z,99.90
2018-09-30T00:25:00.047Z,99.90
2018-09-30T00:27:28.710Z,99.90
2018-09-30T00:29:57.308Z,99.90
2018-09-30T00:32:25.902Z,99.90
2018-09-30T00:34:54.468Z,99.90
2018-09-30T00:37:23.092Z,99.90
2018-09-30T00:39:51.776Z,99.90
2018-09-30T00:42:20.463Z,99.90
2018-09-30T00:44:49.219Z,99.90
2018-09-30T00:47:17.887Z,99.90
2018-09-30T00:49:46.587Z,99.90
2018-09-30T00:52:14.323Z,99.90
2018-09-30T00:54:43.002Z,99.90
2018-09-30T00:57:11.623Z,99.90
2018-09-30T00:59:40.368Z,99.90
2018-09-30T01:02:09.176Z,99.90
2018-09-30T01:04:37.896Z,99.90
2018-09-30T01:07:07.058Z,99.90
2018-09-30T01:09:35.682Z,99.90
2018-09-30T01:12:04.257Z,99.90
2018-09-30T01:14:33.255Z,99.90
2018-09-30T01:17:01.921Z,99.90
2018-09-30T01:19:30.569Z,99.90
2018-09-30T01:21:59.334Z,99.90
2018-09-30T01:24:27.952Z,99.90
2018-09-30T01:26:56.652Z,99.90
2018-09-30T01:29:25.212Z,99.90
2018-09-30T01:31:53.000Z,99.90
2018-09-30T01:34:21.703Z,99.90
2018-09-30T01:36:50.648Z,99.90
2018-09-30T01:39:19.080Z,99.90
2018-09-30T01:41:47.930Z,99.90
2018-09-30T01:44:16.517Z,99.90
2018-09-30T01:46:45.192Z,99.90
2018-09-30T01:49:14.565Z,99.90
2018-09-30T01:51:43.397Z,99.90
2018-09-30T01:54:12.129Z,99.90
2018-09-30T01:56:40.625Z,99.90
2018-09-30T01:59:09.240Z,99.90
2018-09-30T02:01:37.800Z,99.90
2018-09-30T02:04:06.370Z,99.90
2018-09-30T02:06:34.851Z,99.90
2018-09-30T02:09:03.909Z,99.90
2018-09-30T02:11:32.607Z,99.90
2018-09-30T02:14:02.612Z,99.90
2018-09-30T02:16:31.225Z,99.90
2018-09-30T02:19:00.192Z,99.90
2018-09-30T02:21:28.698Z,99.90
2018-09-30T02:23:57.368Z,99.90
2018-09-30T02:26:25.932Z,99.90
2018-09-30T02:28:54.612Z,99.90
2018-09-30T02:31:23.293Z,99.90
2018-09-30T02:33:52.012Z,99.90
2018-09-30T02:36:20.638Z,99.90
2018-09-30T02:38:49.273Z,99.90
2018-09-30T02:41:18.013Z,99.90
2018-09-30T02:43:46.811Z,99.90
2018-09-30T02:46:15.620Z,99.90
2018-09-30T02:48:44.415Z,99.90
2018-09-30T02:51:13.050Z,99.90
2018-09-30T02:53:41.774Z,99.90
2018-09-30T02:56:10.409Z,99.90
2018-09-30T02:58:39.184Z,99.90
2018-09-30T03:01:08.089Z,99.90
2018-09-30T03:03:36.720Z,99.90
2018-09-30T03:06:05.522Z,99.90
2018-09-30T03:08:39.524Z,99.90
2018-09-30T03:11:08.058Z,99.90
2018-09-30T03:13:36.803Z,99.90
2018-09-30T03:16:05.445Z,99.90
2018-09-30T03:18:34.123Z,99.90
2018-09-30T03:21:02.815Z,99.90
2018-09-30T03:23:31.510Z,99.90
2018-09-30T03:26:00.208Z,99.90
2018-09-30T03:28:28.808Z,99.90
2018-09-30T03:30:57.370Z,99.90
2018-09-30T03:33:26.071Z,99.90
2018-09-30T03:35:54.850Z,99.90
2018-09-30T03:38:23.443Z,99.90
2018-09-30T03:40:52.131Z,99.90
2018-09-30T03:43:20.683Z,99.90
2018-09-30T03:45:49.397Z,99.90
2018-09-30T03:48:18.166Z,99.90
2018-09-30T03:50:46.842Z,99.90
2018-09-30T03:53:15.460Z,99.90
2018-09-30T03:55:44.146Z,99.90
2018-09-30T03:58:13.115Z,99.90
2018-09-30T04:00:41.639Z,99.90
2018-09-30T04:03:10.172Z,99.90
2018-09-30T04:05:38.795Z,99.90
2018-09-30T04:08:07.729Z,99.90
2018-09-30T04:10:36.311Z,99.90
2018-09-30T04:13:05.089Z,99.90
2018-09-30T04:15:33.613Z,99.90
2018-09-30T04:18:02.119Z,99.90
2018-09-30T04:20:30.867Z,99.90
2018-09-30T04:22:59.529Z,99.90
2018-09-30T04:25:27.988Z,99.90
2018-09-30T04:27:56.611Z,99.90
2018-09-30T04:30:25.104Z,99.90
2018-09-30T04:32:53.720Z,99.90
2018-09-30T04:35:22.310Z,99.90
2018-09-30T04:37:50.984Z,99.90
2018-09-30T04:40:19.776Z,99.90
2018-09-30T04:42:48.327Z,99.90
2018-09-30T06:53:38.311Z,85.20
2018-09-30T06:56:06.657Z,85.30
2018-09-30T06:58:34.793Z,84.80
2018-09-30T07:01:03.454Z,84.80
2018-09-30T07:03:31.892Z,83.70
2018-09-30T07:06:00.080Z,82.60
2018-09-30T07:08:28.663Z,81.90
2018-09-30T07:10:57.205Z,80.50
2018-09-30T07:13:25.749Z,80.20
2018-09-30T07:15:54.186Z,79.40
2018-09-30T07:18:22.883Z,78.70
2018-09-30T07:20:51.344Z,78.20
2018-09-30T07:23:19.286Z,76.30
2018-09-30T07:25:47.460Z,77.20
2018-09-30T07:28:15.770Z,75.00
2018-09-30T07:30:43.987Z,74.20
2018-09-30T07:33:12.190Z,73.60
2018-09-30T07:35:40.707Z,72.50
2018-09-30T07:38:09.338Z,70.50
2018-09-30T07:40:38.033Z,71.30
2018-09-30T07:43:06.826Z,71.00
2018-09-30T07:45:35.213Z,70.30
2018-09-30T07:48:03.667Z,70.10
2018-09-30T07:50:32.848Z,69.50
2018-09-30T07:58:32.894Z,68.90
2018-09-30T08:01:01.363Z,68.30
2018-09-30T08:03:29.633Z,68.20
2018-09-30T08:05:58.125Z,68.10
2018-09-30T08:08:26.623Z,66.20
2018-09-30T08:10:54.920Z,64.90
2018-09-30T08:13:23.613Z,64.50
2018-09-30T08:15:52.877Z,63.90
2018-09-30T08:18:21.001Z,63.60
2018-09-30T08:20:50.003Z,62.40
2018-09-30T08:23:18.766Z,62.80
2018-09-30T08:25:47.115Z,61.80
2018-09-30T08:28:15.410Z,60.70
2018-09-30T08:30:43.783Z,60.30
2018-09-30T08:33:11.783Z,57.90
2018-09-30T08:35:40.357Z,58.60
2018-09-30T08:38:13.866Z,58.40
2018-09-30T08:40:47.271Z,58.30
2018-09-30T08:43:15.714Z,58.40
2018-09-30T08:45:43.865Z,57.20
2018-09-30T08:48:12.156Z,56.40
2018-09-30T08:50:40.615Z,55.50
2018-09-30T08:53:08.951Z,55.60
2018-09-30T08:55:37.748Z,55.70
2018-09-30T08:58:07.978Z,55.40
2018-09-30T09:00:37.504Z,55.70
2018-09-30T09:03:06.228Z,55.30
2018-09-30T09:05:35.004Z,54.60
2018-09-30T09:08:03.549Z,55.00
2018-09-30T09:10:31.677Z,54.50
2018-09-30T09:12:59.997Z,54.30
2018-09-30T09:15:28.517Z,54.10
2018-09-30T09:17:56.689Z,53.90
2018-09-30T09:20:25.650Z,53.50
2018-09-30T09:22:54.229Z,52.90
2018-09-30T09:25:22.890Z,53.30
2018-09-30T09:27:51.182Z,52.20
2018-09-30T09:30:19.993Z,50.70
2018-09-30T09:32:48.175Z,50.60
2018-09-30T09:35:17.461Z,50.10
2018-09-30T09:37:45.671Z,49.30
2018-09-30T09:40:14.281Z,49.40
2018-09-30T09:42:42.297Z,49.20
2018-09-30T09:45:10.906Z,48.40
2018-09-30T09:47:39.640Z,47.30
2018-09-30T09:50:08.583Z,46.70
2018-09-30T09:52:37.359Z,47.50
2018-09-30T09:55:05.649Z,47.70
2018-09-30T09:57:34.110Z,46.60
2018-09-30T10:00:02.241Z,46.90
2018-09-30T10:07:26.953Z,44.50
2018-09-30T10:09:55.191Z,44.30
2018-09-30T10:12:24.090Z,44.10
2018-09-30T10:14:52.813Z,43.60
2018-09-30T10:17:21.026Z,43.80
2018-09-30T10:19:49.693Z,44.10
2018-09-30T10:22:17.863Z,43.40
2018-09-30T10:24:46.659Z,43.70
2018-09-30T10:27:15.289Z,42.90
2018-09-30T10:29:43.663Z,41.90
2018-09-30T10:32:12.394Z,40.80
2018-09-30T10:34:41.386Z,39.70
2018-09-30T10:37:09.813Z,40.20
2018-09-30T10:39:39.253Z,40.20
2018-09-30T10:42:07.001Z,39.80
2018-09-30T10:44:34.871Z,40.00
2018-09-30T10:47:03.069Z,40.70
2018-09-30T10:49:31.020Z,41.20
2018-09-30T10:51:58.881Z,38.70
2018-09-30T10:54:26.972Z,39.50
2018-09-30T10:56:55.430Z,39.40
2018-09-30T10:59:23.366Z,39.70
2018-09-30T11:01:51.878Z,39.60
2018-09-30T11:04:20.115Z,40.30
2018-09-30T11:06:48.502Z,39.80
2018-09-30T11:09:16.376Z,39.30
2018-09-30T11:11:44.405Z,38.50
2018-09-30T11:14:12.283Z,38.70
2018-09-30T11:16:40.198Z,38.60
2018-09-30T11:19:08.569Z,38.10
2018-09-30T11:21:36.792Z,38.10
2018-09-30T11:24:04.816Z,37.60
2018-09-30T11:26:33.110Z,36.70
2018-09-30T11:29:01.075Z,36.80
2018-09-30T11:31:29.175Z,36.30
2018-09-30T11:33:57.089Z,33.90
2018-09-30T11:36:24.972Z,34.70
2018-09-30T11:38:52.960Z,34.60
2018-09-30T11:41:20.847Z,35.30
2018-09-30T11:43:49.493Z,34.60
2018-09-30T11:48:45.075Z,34.10
2018-09-30T11:51:12.889Z,33.80
2018-09-30T11:53:42.286Z,34.30
2018-09-30T11:56:10.416Z,33.30
2018-09-30T11:58:38.412Z,33.00
2018-09-30T12:01:06.650Z,33.50
2018-09-30T12:03:35.004Z,33.30
2018-09-30T12:06:03.542Z,32.70
2018-09-30T12:08:31.424Z,33.20
2018-09-30T12:11:00.117Z,31.60
2018-09-30T12:13:29.471Z,32.60
2018-09-30T12:15:57.765Z,32.20
2018-09-30T12:18:25.676Z,32.00
2018-09-30T12:20:53.643Z,33.00
2018-09-30T12:23:21.901Z,33.40
2018-09-30T12:25:49.923Z,33.70
2018-09-30T12:28:18.234Z,33.50
2018-09-30T12:30:46.580Z,34.40
2018-09-30T12:33:15.062Z,34.60
2018-09-30T12:35:43.046Z,34.10
2018-09-30T12:38:11.165Z,34.30
2018-09-30T12:40:39.129Z,34.80
2018-09-30T12:43:07.413Z,34.00
2018-09-30T12:45:35.689Z,33.80
2018-09-30T12:48:05.046Z,34.10
2018-09-30T12:50:34.207Z,34.20
2018-09-30T12:53:02.127Z,34.80
2018-09-30T12:55:30.174Z,35.10
2018-09-30T12:57:58.087Z,35.80
2018-09-30T13:00:25.961Z,36.50
2018-09-30T13:02:53.853Z,37.00
2018-09-30T13:05:21.707Z,37.70
2018-09-30T13:07:49.503Z,37.40
2018-09-30T13:10:17.568Z,37.10
2018-09-30T13:12:45.814Z,36.90
2018-09-30T13:15:13.984Z,37.40
2018-09-30T13:17:42.104Z,37.60
2018-09-30T13:20:10.074Z,38.00
2018-09-30T13:22:38.042Z,37.70
2018-09-30T13:25:05.959Z,37.80
2018-09-30T13:27:33.840Z,38.60
2018-09-30T13:30:01.861Z,39.40
2018-09-30T13:32:29.829Z,40.10
2018-09-30T13:34:58.870Z,40.40
2018-09-30T13:37:27.125Z,39.50
2018-09-30T13:39:55.052Z,40.30
2018-09-30T13:42:23.794Z,40.90
2018-09-30T13:44:51.607Z,41.30
2018-09-30T13:47:19.758Z,41.80
2018-09-30T13:49:48.002Z,41.80
2018-09-30T13:55:01.474Z,42.90
2018-09-30T13:57:29.336Z,42.20
2018-09-30T13:59:57.500Z,41.90
2018-09-30T14:02:25.422Z,40.70
2018-09-30T14:04:53.228Z,40.00
2018-09-30T14:07:21.244Z,39.10
2018-09-30T14:09:49.067Z,38.70
2018-09-30T14:12:17.037Z,39.40
2018-09-30T14:14:44.867Z,39.60
2018-09-30T14:17:12.801Z,40.20
2018-09-30T14:19:41.147Z,40.90
2018-09-30T14:22:08.992Z,41.50
2018-09-30T14:24:36.855Z,41.80
2018-09-30T14:27:04.826Z,42.30
2018-09-30T14:29:32.636Z,43.30
2018-09-30T14:37:32.091Z,43.50
2018-09-30T14:39:59.841Z,43.90
2018-09-30T14:42:28.103Z,44.20
2018-09-30T14:44:56.008Z,44.30
2018-09-30T14:47:23.940Z,44.70
2018-09-30T14:49:52.064Z,45.20
2018-09-30T14:52:20.083Z,45.10
2018-09-30T14:54:48.019Z,45.10
2018-09-30T14:57:15.917Z,45.30
2018-09-30T14:59:43.801Z,45.60
2018-09-30T15:02:11.781Z,46.30
2018-09-30T15:04:39.612Z,45.80
2018-09-30T15:07:07.575Z,46.00
2018-09-30T15:09:36.193Z,46.50
2018-09-30T15:12:04.264Z,46.70
2018-09-30T15:14:32.338Z,46.90
2018-09-30T15:17:00.630Z,47.30
2018-09-30T15:19:29.476Z,48.10
2018-09-30T15:21:58.295Z,47.80
2018-09-30T15:24:26.436Z,48.10
2018-09-30T15:26:54.585Z,48.30
2018-09-30T15:29:23.137Z,48.50
2018-09-30T15:31:51.786Z,48.90
2018-09-30T15:34:20.032Z,48.70
2018-09-30T15:36:48.184Z,49.10
2018-09-30T15:39:16.102Z,48.70
2018-09-30T15:41:44.396Z,49.50
2018-09-30T15:44:13.500Z,49.70
2018-09-30T15:46:42.548Z,49.80
2018-09-30T15:49:10.824Z,50.40
2018-09-30T15:51:38.774Z,50.30
2018-09-30T15:54:07.024Z,50.40
2018-09-30T15:56:34.979Z,50.80
2018-09-30T15:59:02.847Z,50.90
2018-09-30T16:01:30.654Z,51.20
2018-09-30T16:03:58.774Z,51.40
2018-09-30T16:06:26.724Z,51.60
2018-09-30T16:08:54.584Z,51.80
2018-09-30T16:11:22.412Z,52.10
2018-09-30T16:13:50.614Z,52.20
2018-09-30T16:16:18.822Z,52.30
2018-09-30T16:18:46.759Z,52.50
2018-09-30T16:21:14.727Z,52.70
2018-09-30T16:23:42.763Z,52.80
2018-09-30T16:26:10.952Z,53.00
2018-09-30T16:28:39.355Z,53.40
2018-09-30T16:31:07.770Z,53.50
2018-09-30T16:33:36.270Z,53.60
2018-09-30T16:36:04.204Z,53.80
2018-09-30T16:38:32.318Z,54.10
2018-09-30T16:41:00.988Z,54.20
2018-09-30T16:43:29.219Z,54.80
2018-09-30T16:45:57.141Z,54.40
2018-09-30T16:48:26.060Z,54.60
2018-09-30T16:50:54.921Z,54.80
2018-09-30T16:53:23.109Z,55.10
2018-09-30T16:55:51.356Z,55.20
2018-09-30T16:58:20.823Z,55.40
2018-09-30T17:00:49.134Z,55.50
2018-09-30T17:03:17.104Z,55.60
2018-09-30T17:05:44.977Z,55.60
2018-09-30T17:08:12.823Z,55.80
2018-09-30T17:10:40.721Z,56.00
2018-09-30T17:13:09.357Z,56.20
2018-09-30T17:15:37.805Z,56.50
2018-09-30T17:18:05.713Z,57.30
2018-09-30T17:20:34.005Z,57.00
2018-09-30T17:23:02.033Z,57.20
2018-09-30T17:25:31.973Z,57.50
2018-09-30T17:28:00.156Z,57.80
2018-09-30T17:30:28.886Z,58.10
2018-09-30T17:32:56.877Z,59.10
2018-09-30T17:35:25.001Z,59.40
2018-09-30T17:37:53.460Z,60.00
2018-09-30T17:40:21.898Z,59.70
2018-09-30T17:42:51.515Z,59.90
2018-09-30T17:45:19.848Z,60.10
2018-09-30T17:47:47.883Z,60.60
2018-09-30T17:50:25.148Z,60.90
2018-09-30T17:52:53.789Z,61.40
2018-09-30T17:55:23.099Z,61.40
2018-09-30T17:57:52.386Z,61.60
2018-09-30T18:00:21.242Z,61.90
2018-09-30T18:02:49.932Z,62.40
2018-09-30T18:05:19.476Z,62.50
2018-09-30T18:07:48.494Z,62.80
2018-09-30T18:10:16.708Z,63.40
2018-09-30T18:12:44.650Z,63.30
2018-09-30T18:15:12.730Z,63.50
2018-09-30T18:17:40.818Z,63.80
2018-09-30T18:20:08.801Z,63.80
2018-09-30T18:22:36.691Z,63.90
2018-09-30T18:25:04.612Z,64.20
2018-09-30T18:27:32.704Z,64.00
2018-09-30T18:30:00.552Z,64.10
2018-09-30T18:32:28.376Z,64.30
2018-09-30T18:34:56.701Z,64.60
2018-09-30T18:37:24.676Z,64.90
2018-09-30T18:39:53.268Z,65.20
2018-09-30T18:42:21.450Z,65.60
2018-09-30T18:44:49.993Z,66.10
2018-09-30T18:47:18.654Z,66.40
2018-09-30T18:49:47.317Z,67.00
2018-09-30T18:52:16.367Z,67.10
2018-09-30T18:54:44.267Z,67.50
2018-09-30T18:57:12.473Z,68.00
2018-09-30T18:59:40.814Z,68.50
2018-09-30T19:02:08.985Z,69.20
2018-09-30T19:04:37.095Z,69.10
2018-09-30T19:07:05.180Z,68.70
2018-09-30T19:09:34.264Z,68.80
2018-09-30T19:12:02.746Z,68.90
2018-09-30T19:14:31.440Z,69.60
2018-09-30T19:17:01.515Z,69.50
2018-09-30T19:19:31.258Z,69.80
2018-09-30T19:22:03.451Z,69.90
2018-09-30T19:24:38.893Z,70.20
2018-09-30T19:27:11.247Z,70.60
2018-09-30T19:29:45.805Z,70.80
2018-09-30T19:32:15.300Z,71.00
2018-09-30T19:34:45.708Z,71.20
2018-09-30T19:37:21.858Z,72.60
2018-09-30T19:39:50.596Z,71.90
2018-09-30T19:42:19.437Z,72.10
2018-09-30T19:44:48.013Z,72.60
2018-09-30T19:47:16.717Z,72.70
2018-09-30T19:49:46.259Z,73.90
2018-09-30T19:52:15.119Z,73.30
2018-09-30T19:54:45.158Z,73.60
2018-09-30T19:57:15.298Z,74.00
2018-09-30T19:59:45.834Z,74.50
2018-09-30T20:02:15.454Z,74.70
2018-09-30T20:04:44.187Z,75.10
2018-09-30T20:07:12.822Z,75.40
2018-09-30T20:09:40.999Z,75.90
2018-09-30T20:12:10.006Z,76.20
2018-09-30T20:14:39.950Z,76.60
2018-09-30T20:17:14.058Z,77.00
2018-09-30T20:19:42.840Z,77.60
2018-09-30T20:22:14.246Z,78.30
2018-09-30T20:24:43.038Z,79.00
2018-09-30T20:27:12.457Z,80.00
2018-09-30T20:29:43.531Z,80.50
2018-09-30T20:32:13.503Z,80.80
2018-09-30T20:34:43.588Z,81.50
2018-09-30T20:37:13.179Z,81.40
2018-09-30T20:39:44.302Z,82.60
2018-09-30T20:42:12.992Z,83.20
2018-09-30T20:44:42.190Z,84.00
2018-09-30T20:47:13.587Z,84.90
2018-09-30T20:52:34.705Z,85.30
2018-09-30T20:55:04.367Z,85.50
2018-09-30T20:57:32.915Z,85.60
2018-09-30T21:00:01.689Z,85.30
2018-09-30T21:02:30.236Z,86.00
2018-09-30T21:05:00.827Z,87.10
2018-09-30T21:07:29.459Z,89.00
2018-09-30T21:09:58.063Z,89.70
2018-09-30T21:12:26.620Z,90.50
2018-09-30T21:14:55.390Z,90.60
2018-09-30T21:17:23.948Z,90.90
2018-09-30T21:19:52.748Z,91.30
2018-09-30T21:22:21.454Z,90.90
2018-09-30T21:24:50.160Z,91.00
2018-09-30T21:27:18.909Z,91.70
2018-09-30T21:29:47.717Z,91.90
2018-09-30T21:32:16.601Z,92.70
2018-09-30T21:34:45.137Z,93.60
2018-09-30T21:37:13.754Z,93.90
2018-09-30T21:39:42.474Z,94.20
2018-09-30T21:42:11.120Z,94.70
2018-09-30T21:44:39.820Z,95.60
2018-09-30T21:47:08.735Z,95.50
2018-09-30T21:49:37.833Z,95.50
2018-09-30T21:52:06.459Z,95.50
2018-09-30T21:54:35.144Z,96.00
2018-09-30T21:57:03.949Z,96.40
2018-09-30T21:59:32.764Z,96.70
2018-09-30T22:02:01.502Z,97.10
2018-09-30T22:04:30.232Z,97.60
2018-09-30T22:06:59.024Z,97.90
2018-09-30T22:09:27.885Z,98.10
2018-09-30T22:11:56.750Z,98.30
2018-09-30T22:14:25.398Z,98.70
2018-09-30T22:16:54.160Z,99.70
2018-09-30T22:19:23.158Z,99.60
2018-09-30T22:21:51.824Z,99.80
2018-09-30T22:24:20.568Z,99.90
2018-09-30T22:26:49.177Z,99.70
2018-09-30T22:29:17.905Z,99.70
2018-09-30T22:31:46.759Z,99.90
2018-09-30T22:34:15.694Z,99.90
2018-09-30T22:36:44.430Z,99.90
2018-09-30T22:39:13.004Z,99.90
2018-09-30T22:41:41.637Z,99.90
2018-09-30T22:44:10.410Z,99.90
2018-09-30T22:46:38.946Z,99.90
2018-09-30T22:49:07.614Z,99.80
2018-09-30T22:51:36.193Z,99.70
2018-09-30T22:54:04.879Z,99.80
2018-09-30T22:56:33.424Z,99.90
2018-09-30T22:59:02.029Z,99.90
2018-09-30T23:01:30.760Z,99.90
2018-09-30T23:03:59.441Z,99.90
2018-09-30T23:06:28.146Z,99.90
2018-09-30T23:08:56.752Z,99.90
2018-09-30T23:11:25.448Z,99.90
2018-09-30T23:13:54.278Z,99.90
2018-09-30T23:16:23.003Z,99.90
2018-09-30T23:18:51.539Z,99.90
2018-09-30T23:21:20.182Z,99.90
2018-09-30T23:23:48.769Z,99.90
2018-09-30T23:26:17.377Z,99.90
2018-09-30T23:28:45.948Z,99.90
2018-09-30T23:31:14.836Z,99.90
2018-09-30T23:33:43.528Z,99.90
2018-09-30T23:36:12.356Z,99.90
2018-09-30T23:38:40.979Z,99.90
2018-09-30T23:41:09.826Z,99.90
2018-09-30T23:43:38.639Z,99.90
2018-09-30T23:46:07.495Z,99.90
2018-09-30T23:48:36.205Z,99.90
2018-09-30T23:51:05.165Z,99.90
2018-09-30T23:53:33.681Z,99.90
2018-09-30T23:56:02.618Z,99.90
2018-09-30T23:58:31.294Z,99.90
